Time;durP1;ratioP1;P1;durP2;ratioP2;P2;SDS_P1;SDS_P2;PMS_P1;PMS_P2;Temp;Humidity;BMP_temperature;BMP_pressure;BME280_temperature;BME280_humidity;BME280_pressure;Samples;Min_cycle;Max_cycle;Signal;HPM_P1;HPM_P2
2022/03/23 00:00:35;;;;;;;54.20;20.72;;;;;;;2.02;76.85;148176.09;1803063;79;21241;-64
2022/03/23 00:03:04;;;;;;;46.42;19.57;;;;;;;2.03;76.79;148177.36;1802614;79;21068;-64
2022/03/23 00:05:32;;;;;;;47.13;19.85;;;;;;;2.06;76.60;148185.09;1804042;79;21014;-63
2022/03/23 00:08:01;;;;;;;48.17;17.55;;;;;;;2.09;76.36;148192.81;1811354;78;21015;-64
2022/03/23 00:10:29;;;;;;;44.38;17.15;;;;;;;2.15;75.98;148209.59;1811123;79;20984;-62
2022/03/23 00:12:58;;;;;;;40.17;17.80;;;;;;;2.20;75.50;148219.89;1811028;77;22728;-63
2022/03/23 00:15:29;;;;;;;41.42;17.80;;;;;;;2.25;75.25;148232.83;1810161;79;20976;-62
2022/03/23 00:17:59;;;;;;;41.08;16.48;;;;;;;2.26;75.02;148235.41;1809919;79;21071;-64
2022/03/23 00:20:26;;;;;;;42.80;17.92;;;;;;;2.26;74.79;148236.66;1810419;79;21501;-63
2022/03/23 00:22:55;;;;;;;41.18;15.83;;;;;;;2.24;74.72;148231.52;1810052;78;20999;-63
2022/03/23 00:25:22;;;;;;;33.23;14.75;;;;;;;2.25;74.54;148234.09;1810945;79;21560;-64
2022/03/23 00:27:50;;;;;;;39.18;15.65;;;;;;;2.25;74.35;148232.83;1811463;79;21000;-63
2022/03/23 00:30:17;;;;;;;39.92;15.35;;;;;;;2.25;74.09;148232.83;1811210;79;21083;-64
2022/03/23 00:32:46;;;;;;;36.88;15.38;;;;;;;2.23;73.86;148228.94;1810945;77;21430;-64
2022/03/23 00:35:13;;;;;;;33.30;14.20;;;;;;;2.21;73.51;148223.78;1811675;78;21039;-62
2022/03/23 00:37:43;;;;;;;30.12;13.35;;;;;;;2.19;73.23;148218.62;1811535;78;21239;-61
2022/03/23 00:40:11;;;;;;;36.58;13.70;;;;;;;2.15;73.02;148208.33;1811822;79;21000;-60
2022/03/23 00:42:40;;;;;;;27.22;11.75;;;;;;;2.16;72.73;148210.91;1811137;78;21020;-63
2022/03/23 00:45:11;;;;;;;25.25;10.13;;;;;;;2.17;72.52;148213.47;1811449;78;21079;-65
2022/03/23 00:47:39;;;;;;;27.65;11.00;;;;;;;2.18;70.91;148216.06;1817372;78;21026;-64
2022/03/23 00:50:07;;;;;;;28.73;11.78;;;;;;;2.27;71.42;148239.25;1820350;78;21121;-63
2022/03/23 00:52:37;;;;;;;25.95;11.22;;;;;;;2.28;71.19;148241.81;1820235;77;21363;-63
2022/03/23 00:55:09;;;;;;;25.17;10.30;;;;;;;2.26;70.94;148236.66;1820230;78;21008;-63
2022/03/23 00:57:38;;;;;;;28.17;11.78;;;;;;;2.26;70.56;148236.66;1820589;78;20945;-64
2022/03/23 01:00:12;;;;;;;28.30;10.97;;;;;;;2.27;70.38;148239.25;1820829;78;21477;-64
2022/03/23 01:02:40;;;;;;;26.85;11.10;;;;;;;2.26;70.15;148236.66;1820333;77;21512;-64
2022/03/23 01:05:10;;;;;;;27.15;10.85;;;;;;;2.23;70.14;148227.67;1819711;78;20971;-65
2022/03/23 01:07:39;;;;;;;29.25;12.00;;;;;;;2.15;70.20;148209.59;1819626;78;21430;-63
2022/03/23 01:10:11;;;;;;;27.80;11.73;;;;;;;2.05;70.33;148182.52;1819289;78;21032;-63
2022/03/23 01:12:44;;;;;;;26.42;12.53;;;;;;;1.93;70.61;148154.17;1819833;78;21022;-64
2022/03/23 01:15:13;;;;;;;28.80;12.18;;;;;;;1.79;71.12;148119.39;1819729;78;21208;-62
2022/03/23 01:17:42;;;;;;;27.05;11.70;;;;;;;1.64;71.67;148081.97;1819331;78;21012;-63
2022/03/23 01:20:12;;;;;;;30.97;12.43;;;;;;;1.48;72.37;148042.03;1819371;78;21517;-62
2022/03/23 01:22:41;;;;;;;32.75;12.80;;;;;;;1.35;73.04;148009.81;1819881;78;20999;-64
2022/03/23 01:25:09;;;;;;;28.05;11.75;;;;;;;1.25;73.41;147984.08;1819765;78;21003;-63
2022/03/23 01:27:39;;;;;;;30.27;12.33;;;;;;;1.12;73.71;147951.88;1820055;78;20939;-62
2022/03/23 01:30:09;;;;;;;30.97;12.58;;;;;;;0.99;74.18;147919.63;1820010;78;20943;-64
2022/03/23 01:32:36;;;;;;;29.50;12.43;;;;;;;0.90;74.45;147897.78;1820259;78;20905;-64
2022/03/23 01:35:07;;;;;;;33.85;12.37;;;;;;;0.82;74.65;147878.45;1819442;78;20924;-65
2022/03/23 01:37:34;;;;;;;33.08;13.05;;;;;;;0.74;74.83;147856.55;1819853;78;21047;-63
2022/03/23 01:40:06;;;;;;;35.43;13.35;;;;;;;0.68;74.93;147842.38;1820087;77;21227;-65
2022/03/23 01:42:37;;;;;;;32.88;11.93;;;;;;;0.61;74.98;147824.37;1784062;80;21354;-64
2022/03/23 01:45:06;;;;;;;28.32;11.38;;;;;;;0.56;75.05;147814.08;1784250;80;21096;-62
2022/03/23 01:47:34;;;;;;;30.57;11.48;;;;;;;0.51;75.09;147801.16;1755916;81;21441;-64
2022/03/23 01:50:04;;;;;;;26.57;11.03;;;;;;;0.46;75.08;147788.30;1789668;80;21110;-62
2022/03/23 01:52:32;;;;;;;25.88;10.95;;;;;;;0.42;75.08;147778.00;1758940;80;21235;-63
2022/03/23 01:55:10;;;;;;;25.72;9.88;;;;;;;0.38;75.09;147767.72;1789652;80;20987;-62
2022/03/23 01:57:37;;;;;;;26.55;10.80;;;;;;;0.34;75.07;147757.44;1759140;80;20945;-63
2022/03/23 02:00:07;;;;;;;26.30;10.25;;;;;;;0.34;75.12;147757.44;1761198;80;21039;-63
2022/03/23 02:02:45;;;;;;;23.10;9.65;;;;;;;0.32;75.12;147752.23;1758338;81;21086;-63
2022/03/23 02:05:14;;;;;;;22.37;8.90;;;;;;;0.31;75.11;147749.66;1789226;80;21169;-65
2022/03/23 02:07:43;;;;;;;23.95;9.65;;;;;;;0.29;75.04;147745.83;1757371;81;21055;-62
2022/03/23 02:10:11;;;;;;;21.40;8.43;;;;;;;0.30;74.96;147747.09;1789701;78;20979;-63
2022/03/23 02:12:42;;;;;;;22.77;8.43;;;;;;;0.27;74.85;147741.94;1789162;80;20999;-63
2022/03/23 02:15:17;;;;;;;23.12;8.25;;;;;;;0.24;74.78;147734.22;1757062;81;20975;-63
2022/03/23 02:17:47;;;;;;;20.32;8.55;;;;;;;0.23;74.78;147730.39;1757184;81;20953;-62
2022/03/23 02:20:14;;;;;;;22.62;8.90;;;;;;;0.17;74.86;147716.22;1757205;81;21023;-64
2022/03/23 02:22:44;;;;;;;19.15;8.28;;;;;;;0.15;74.85;147711.08;1756255;81;21398;-63
2022/03/23 02:25:11;;;;;;;16.97;7.17;;;;;;;0.13;74.80;147707.19;1756434;81;21117;-62
2022/03/23 02:27:40;;;;;;;19.80;8.13;;;;;;;0.13;74.63;147705.94;1757469;81;20951;-63
2022/03/23 02:30:10;;;;;;;17.90;7.25;;;;;;;0.12;74.52;147703.36;1756714;80;21106;-64
2022/03/23 02:32:39;;;;;;;21.02;7.70;;;;;;;0.11;74.36;147702.05;1757177;80;20945;-64
2022/03/23 02:35:08;;;;;;;17.12;7.35;;;;;;;0.10;74.21;147698.17;1757330;80;21547;-65
2022/03/23 02:37:35;;;;;;;20.30;7.17;;;;;;;0.09;74.10;147696.91;1757337;81;20873;-64
2022/03/23 02:40:05;;;;;;;20.00;6.55;;;;;;;0.11;73.91;147702.05;1757335;81;21007;-64
2022/03/23 02:42:33;;;;;;;16.70;6.67;;;;;;;0.11;73.73;147700.75;1757506;81;21470;-63
2022/03/23 02:45:00;;;;;;;20.80;6.87;;;;;;;0.13;72.91;147707.19;1756884;81;21071;-63
2022/03/23 02:47:27;;;;;;;14.47;6.67;;;;;;;0.18;72.95;147718.80;1752691;81;21127;-63
2022/03/23 02:49:55;;;;;;;17.15;6.60;;;;;;;0.19;72.49;147721.38;1810766;79;21075;-63
2022/03/23 02:52:22;;;;;;;13.00;5.90;;;;;;;0.22;72.12;147727.77;1811458;79;21497;-63
2022/03/23 03:03:42;;;;;;;14.78;5.50;;;;;;;0.28;71.07;147744.52;1811370;77;21521;-64
2022/03/23 03:06:09;;;;;;;15.40;5.60;;;;;;;0.33;70.50;147754.81;1811471;79;20948;-62
2022/03/23 03:08:48;;;;;;;17.48;6.00;;;;;;;0.38;69.67;147768.97;1811978;79;20920;-63
2022/03/23 03:11:19;;;;;;;20.55;5.97;;;;;;;0.44;69.32;147783.16;1811764;79;21003;-63
2022/03/23 03:13:48;;;;;;;16.67;6.35;;;;;;;0.48;69.16;147793.44;1811309;79;20916;-62
2022/03/23 03:16:17;;;;;;;13.70;5.70;;;;;;;0.48;69.19;147793.44;1811884;77;21047;-63
2022/03/23 03:18:46;;;;;;;15.72;5.90;;;;;;;0.46;69.19;147788.30;1811780;79;21055;-63
2022/03/23 03:21:14;;;;;;;17.90;5.58;;;;;;;0.46;69.24;147788.30;1811955;77;21120;-63
2022/03/23 03:23:43;;;;;;;12.47;5.28;;;;;;;0.44;69.29;147783.16;1811744;78;20975;-63
2022/03/23 03:26:11;;;;;;;16.35;6.12;;;;;;;0.40;69.46;147772.86;1811683;78;20999;-63
2022/03/23 03:28:39;;;;;;;15.55;6.08;;;;;;;0.35;70.06;147760.00;1811626;79;20901;-63
2022/03/23 03:31:09;;;;;;;18.77;6.22;;;;;;;0.26;71.04;147739.37;1811326;78;20992;-63
2022/03/23 03:33:37;;;;;;;17.82;5.87;;;;;;;0.11;71.71;147702.05;1812369;79;21240;-63
2022/03/23 03:36:05;;;;;;;15.80;6.37;;;;;;;0.01;72.38;147675.02;1811903;79;20936;-62
2022/03/23 03:38:33;;;;;;;16.62;5.87;;;;;;;-0.08;72.81;147654.45;1812343;77;21044;-63
2022/03/23 03:41:02;;;;;;;18.80;7.00;;;;;;;-0.14;73.11;147638.97;1811988;79;20895;-62
2022/03/23 03:43:30;;;;;;;18.15;7.47;;;;;;;-0.17;73.17;147631.25;1811951;79;20872;-63
2022/03/23 03:45:58;;;;;;;17.07;6.72;;;;;;;-0.18;73.42;147630.00;1811539;78;21537;-63
2022/03/23 03:48:26;;;;;;;20.00;7.80;;;;;;;-0.18;73.43;147628.69;1809396;78;21021;-63
2022/03/23 03:50:54;;;;;;;13.00;5.67;;;;;;;-0.18;73.18;147630.00;1803508;79;21152;-63
2022/03/23 03:53:21;;;;;;;15.25;5.28;;;;;;;-0.16;73.06;147633.83;1802878;79;21318;-63
2022/03/23 03:55:49;;;;;;;19.73;6.03;;;;;;;-0.13;72.63;147640.28;1802886;79;21048;-62
2022/03/23 03:58:17;;;;;;;10.80;5.15;;;;;;;-0.09;72.50;147650.56;1803910;79;21667;-61
2022/03/23 04:00:46;;;;;;;16.32;4.85;;;;;;;-0.07;72.67;147655.72;1811609;79;21004;-61
2022/03/23 04:03:14;;;;;;;13.58;5.42;;;;;;;-0.12;73.04;147644.13;1811766;79;20896;-61
2022/03/23 04:05:42;;;;;;;12.10;5.15;;;;;;;-0.16;73.44;147633.83;1811897;79;20924;-60
2022/03/23 04:08:11;;;;;;;13.50;5.20;;;;;;;-0.21;73.67;147622.28;1811356;78;20963;-62
2022/03/23 04:10:40;;;;;;;17.17;5.20;;;;;;;-0.23;73.86;147615.83;1812106;79;21304;-60
2022/03/23 04:13:07;;;;;;;17.48;5.17;;;;;;;-0.21;73.93;147620.97;1811635;79;21067;-60
2022/03/23 04:15:36;;;;;;;14.98;5.12;;;;;;;-0.18;73.92;147628.69;1812111;77;20833;-61
2022/03/23 04:18:07;;;;;;;13.58;5.05;;;;;;;-0.14;73.80;147638.97;1811688;79;21076;-60
2022/03/23 04:20:35;;;;;;;11.28;5.35;;;;;;;-0.09;73.02;147651.88;1811996;79;21410;-61
2022/03/23 04:23:03;;;;;;;12.85;4.87;;;;;;;0.01;72.54;147676.34;1811373;79;21115;-61
2022/03/23 04:25:30;;;;;;;13.03;5.45;;;;;;;0.10;71.69;147698.17;1812033;79;21454;-61
2022/03/23 04:27:58;;;;;;;17.60;5.58;;;;;;;0.19;71.58;147721.38;1810987;79;21095;-61
2022/03/23 04:30:31;;;;;;;15.35;5.22;;;;;;;0.25;71.64;147736.80;1811418;77;21016;-61
2022/03/23 04:32:59;;;;;;;13.98;5.20;;;;;;;0.28;71.69;147744.52;1811964;79;20943;-62
2022/03/23 04:35:29;;;;;;;12.82;5.42;;;;;;;0.31;71.63;147750.97;1811399;79;22042;-62
2022/03/23 04:37:57;;;;;;;15.98;5.33;;;;;;;0.38;71.50;147767.72;1811665;79;20959;-62
2022/03/23 04:40:24;;;;;;;15.10;5.58;;;;;;;0.44;71.07;147783.16;1811372;79;21319;-62
2022/03/23 04:42:53;;;;;;;11.48;4.78;;;;;;;0.48;70.76;147793.44;1811228;78;21536;-61
2022/03/23 04:45:20;;;;;;;11.88;4.92;;;;;;;0.56;70.26;147814.08;1811443;79;21521;-61
2022/03/23 04:47:48;;;;;;;16.45;5.55;;;;;;;0.65;69.56;147834.66;1813067;78;22078;-61
2022/03/23 04:50:16;;;;;;;15.08;5.53;;;;;;;0.77;69.41;147865.53;1819962;78;21469;-61
2022/03/23 04:52:45;;;;;;;17.23;6.00;;;;;;;0.89;68.90;147893.89;1820360;77;20968;-60
2022/03/23 04:55:14;;;;;;;16.10;5.78;;;;;;;0.98;68.85;147918.37;1820578;78;20892;-61
2022/03/23 04:57:42;;;;;;;12.78;5.12;;;;;;;1.11;68.43;147950.56;1820544;77;20983;-60
2022/03/23 05:00:13;;;;;;;18.52;6.20;;;;;;;1.26;67.92;147987.91;1820367;78;21110;-61
2022/03/23 05:02:41;;;;;;;14.70;5.37;;;;;;;1.37;67.50;148014.97;1820407;77;21445;-61
2022/03/23 05:05:11;;;;;;;13.62;5.20;;;;;;;1.52;67.16;148051.06;1820251;78;21060;-61
2022/03/23 05:07:41;;;;;;;15.63;5.92;;;;;;;1.64;66.80;148081.97;1820419;78;20968;-61
2022/03/23 05:10:09;;;;;;;15.15;5.92;;;;;;;1.83;66.43;148128.38;1820024;78;21540;-62
2022/03/23 05:12:39;;;;;;;11.50;5.58;;;;;;;2.17;65.89;148213.47;1820277;78;21292;-59
2022/03/23 05:15:08;;;;;;;15.98;6.00;;;;;;;2.70;65.62;148345.00;1820091;78;20992;-60
2022/03/23 05:17:37;;;;;;;11.70;5.78;;;;;;;4.29;62.55;148742.50;1820489;78;20868;-60
2022/03/23 05:20:06;;;;;;;12.93;5.55;;;;;;;4.29;62.55;148742.50;1819836;78;21104;-61
2022/03/23 05:22:35;;;;;;;14.73;5.72;;;;;;;5.05;60.43;148931.16;1820484;78;20905;-60
2022/03/23 05:25:05;;;;;;;12.53;5.95;;;;;;;5.72;56.86;149099.19;1819737;78;21872;-61
2022/03/23 05:27:37;;;;;;;13.95;5.78;;;;;;;6.04;54.45;149178.12;1820465;77;21015;-60
2022/03/23 05:30:08;;;;;;;16.70;5.95;;;;;;;6.20;53.40;149218.20;1819939;78;21098;-62
2022/03/23 05:32:36;;;;;;;12.47;5.85;;;;;;;6.07;52.48;149184.55;1820459;77;20881;-62
2022/03/23 05:35:04;;;;;;;14.33;6.15;;;;;;;5.71;51.81;149095.28;1819980;78;20999;-61
2022/03/23 05:37:33;;;;;;;13.83;6.45;;;;;;;5.35;52.30;149006.09;1820412;78;21386;-59
2022/03/23 05:40:03;;;;;;;12.05;6.15;;;;;;;5.09;52.81;148941.47;1819574;78;20932;-62
2022/03/23 05:42:32;;;;;;;19.17;6.55;;;;;;;4.94;53.07;148904.02;1820186;78;20943;-60
2022/03/23 05:44:59;;;;;;;15.20;6.20;;;;;;;4.85;53.16;148880.72;1819794;78;21018;-60
2022/03/23 05:47:27;;;;;;;15.05;5.92;;;;;;;4.81;53.38;148870.41;1820092;78;21007;-61
2022/03/23 05:49:55;;;;;;;17.12;6.47;;;;;;;4.83;53.78;148876.88;1819683;78;21990;-63
2022/03/23 05:52:23;;;;;;;12.05;5.95;;;;;;;4.94;53.81;148904.02;1820130;77;21027;-63
2022/03/23 05:54:51;;;;;;;13.43;6.45;;;;;;;5.05;53.38;148931.16;1819806;77;21667;-64
2022/03/23 05:57:18;;;;;;;14.50;6.15;;;;;;;5.13;53.17;148950.53;1819855;78;21421;-67
2022/03/23 05:59:47;;;;;;;16.37;6.28;;;;;;;5.24;53.33;148977.69;1819666;78;21012;-61
2022/03/23 06:02:14;;;;;;;15.38;5.75;;;;;;;5.41;53.11;149021.59;1818924;78;21171;-64
2022/03/23 06:04:42;;;;;;;15.35;6.20;;;;;;;5.59;52.69;149065.55;1819313;78;20973;-62
2022/03/23 06:07:09;;;;;;;15.55;5.42;;;;;;;5.73;52.16;149100.45;1818773;78;21115;-62
2022/03/23 06:09:36;;;;;;;12.47;5.90;;;;;;;5.92;50.90;149148.33;1819591;78;20976;-64
2022/03/23 06:12:06;;;;;;;14.30;5.42;;;;;;;6.09;51.15;149189.77;1819988;78;21535;-63
2022/03/23 06:14:34;;;;;;;15.10;5.75;;;;;;;6.29;50.68;149241.47;1819876;78;21793;-62
2022/03/23 06:17:03;;;;;;;12.25;4.50;;;;;;;6.50;49.53;149291.94;1819663;78;21059;-63
2022/03/23 06:19:31;;;;;;;7.33;4.12;;;;;;;6.62;46.29;149321.69;1820339;78;20999;-62
2022/03/23 06:22:00;;;;;;;10.72;3.75;;;;;;;6.59;45.25;149316.53;1819755;78;20940;-62
2022/03/23 06:24:27;;;;;;;8.53;3.72;;;;;;;6.57;44.91;149310.03;1820034;78;21003;-63
2022/03/23 06:26:55;;;;;;;9.48;4.45;;;;;;;6.56;44.92;149307.45;1819834;78;21019;-62
2022/03/23 06:29:23;;;;;;;17.90;5.17;;;;;;;6.61;44.30;149319.11;1819985;78;21040;-63
2022/03/23 06:31:51;;;;;;;9.73;4.80;;;;;;;6.66;44.52;149333.36;1819707;78;20830;-63
2022/03/23 06:34:18;;;;;;;8.83;3.95;;;;;;;6.73;44.64;149350.13;1819386;78;21036;-62
2022/03/23 06:36:45;;;;;;;10.28;4.28;;;;;;;6.78;44.74;149363.11;1819541;78;21507;-64
2022/03/23 06:39:12;;;;;;;6.97;4.12;;;;;;;6.82;45.05;149373.45;1819029;78;21123;-62
2022/03/23 06:41:39;;;;;;;10.53;3.87;;;;;;;6.86;44.56;149383.80;1819572;77;20992;-63
2022/03/23 06:44:07;;;;;;;9.90;3.87;;;;;;;6.88;44.45;149388.97;1818620;78;21036;-63
2022/03/23 06:46:37;;;;;;;9.43;3.95;;;;;;;6.93;44.39;149399.31;1819441;77;21548;-62
2022/03/23 06:49:05;;;;;;;9.85;3.77;;;;;;;7.01;44.12;149421.31;1815215;78;20916;-62
2022/03/23 06:51:36;;;;;;;9.30;3.80;;;;;;;7.15;43.24;149456.25;1811620;78;21120;-62
2022/03/23 06:54:03;;;;;;;10.50;4.35;;;;;;;7.35;42.83;149505.45;1810953;78;20996;-63
2022/03/23 06:56:31;;;;;;;9.28;4.30;;;;;;;7.72;42.14;149598.69;1811808;79;21007;-62
2022/03/23 06:58:58;;;;;;;9.40;4.33;;;;;;;8.18;40.41;149712.66;1811205;79;20991;-63
2022/03/23 07:01:26;;;;;;;10.53;4.03;;;;;;;8.30;40.26;149742.45;1811356;79;21106;-62
2022/03/23 07:03:53;;;;;;;6.80;4.03;;;;;;;8.23;39.84;149724.34;1811117;79;22454;-64
2022/03/23 07:06:21;;;;;;;10.38;3.90;;;;;;;8.12;39.72;149697.13;1811404;78;21040;-64
2022/03/23 07:11:38;;;;;;;9.55;3.75;;;;;;;7.81;39.89;149620.72;1811724;78;20953;-63
2022/03/23 07:14:06;;;;;;;8.28;3.87;;;;;;;7.69;40.45;149590.94;1811278;79;21000;-62
2022/03/23 07:16:36;;;;;;;7.72;3.58;;;;;;;7.65;40.77;149580.58;1811469;79;21135;-64
2022/03/23 07:19:04;;;;;;;10.78;3.70;;;;;;;7.58;40.58;149563.73;1810766;77;20987;-62
2022/03/23 07:21:32;;;;;;;9.70;4.10;;;;;;;7.61;40.84;149570.19;1811335;79;21046;-64
2022/03/23 07:24:01;;;;;;;7.28;3.92;;;;;;;7.65;41.50;149579.27;1810070;79;21091;-62
2022/03/23 07:26:28;;;;;;;7.65;4.22;;;;;;;7.62;40.75;149572.77;1810822;79;21047;-63
2022/03/23 07:28:56;;;;;;;11.43;4.60;;;;;;;7.56;41.37;149558.56;1810836;79;21127;-62
2022/03/23 07:31:23;;;;;;;8.55;4.53;;;;;;;7.47;41.87;149533.95;1811110;78;21079;-63
2022/03/23 07:33:51;;;;;;;9.30;4.60;;;;;;;7.34;42.83;149502.88;1811274;78;21059;-62
2022/03/23 07:36:18;;;;;;;10.78;4.97;;;;;;;7.23;43.57;149474.42;1811030;79;21078;-62
2022/03/23 07:38:46;;;;;;;14.00;4.65;;;;;;;7.14;43.96;149453.67;1811649;79;21030;-62
2022/03/23 07:41:13;;;;;;;8.38;3.90;;;;;;;7.12;44.50;149448.50;1811245;79;21154;-64
2022/03/23 07:43:41;;;;;;;8.05;3.90;;;;;;;7.10;44.73;149442.06;1811425;78;21029;-62
2022/03/23 07:46:08;;;;;;;9.65;3.90;;;;;;;7.04;44.73;149427.81;1811062;77;21043;-62
2022/03/23 07:48:36;;;;;;;9.35;4.12;;;;;;;7.00;44.31;149417.47;1813021;78;21024;-62
2022/03/23 07:51:05;;;;;;;8.95;4.28;;;;;;;6.95;45.11;149405.81;1821061;78;21014;-63
2022/03/23 07:53:32;;;;;;;8.33;4.10;;;;;;;6.95;45.54;149405.81;1821389;78;21769;-61
2022/03/23 07:55:59;;;;;;;9.28;4.00;;;;;;;6.95;45.63;149404.48;1819655;78;21039;-62
2022/03/23 07:58:28;;;;;;;7.62;4.40;;;;;;;6.90;44.82;149391.56;1800495;79;21095;-61
2022/03/23 08:00:56;;;;;;;7.20;4.05;;;;;;;6.84;45.61;149378.63;1800430;79;21252;-61
2022/03/23 08:03:30;;;;;;;9.05;4.12;;;;;;;6.78;45.06;149361.80;1799946;79;21040;-60
2022/03/23 08:05:57;;;;;;;8.73;4.17;;;;;;;6.75;46.09;149355.36;1799368;79;21242;-61
2022/03/23 08:08:25;;;;;;;8.00;4.12;;;;;;;6.76;46.26;149357.94;1731992;82;21734;-61
2022/03/23 08:10:53;;;;;;;7.45;4.12;;;;;;;6.74;45.92;149352.72;1768910;81;21001;-60
2022/03/23 08:13:22;;;;;;;7.97;4.12;;;;;;;6.72;46.08;149347.55;1703615;82;21098;-60
2022/03/23 08:15:51;;;;;;;8.18;3.80;;;;;;;6.72;46.37;149348.87;1764651;81;21502;-60
2022/03/23 08:18:21;;;;;;;12.95;4.80;;;;;;;6.69;46.48;149339.80;1732032;82;21119;-61
2022/03/23 08:20:49;;;;;;;8.30;4.08;;;;;;;6.64;46.56;149326.88;1768988;80;21127;-61
2022/03/23 08:23:19;;;;;;;8.08;4.20;;;;;;;6.59;47.02;149316.53;1738688;81;20961;-61
2022/03/23 08:25:48;;;;;;;9.08;4.30;;;;;;;6.63;47.25;149325.59;1768684;80;21407;-61
2022/03/23 08:28:15;;;;;;;9.05;3.95;;;;;;;6.69;46.47;149341.11;1768915;81;21477;-61
2022/03/23 08:30:43;;;;;;;8.60;3.92;;;;;;;6.74;46.70;149352.72;1769007;81;21967;-62
2022/03/23 08:33:11;;;;;;;10.80;4.40;;;;;;;6.81;46.04;149370.88;1768607;80;21091;-61
2022/03/23 08:35:39;;;;;;;7.80;3.87;;;;;;;6.85;45.59;149381.22;1768745;80;21492;-64
2022/03/23 08:38:06;;;;;;;8.75;4.10;;;;;;;6.88;45.29;149387.70;1768636;81;21044;-63
2022/03/23 08:40:34;;;;;;;12.75;4.12;;;;;;;6.92;44.74;149396.73;1732368;82;21112;-62
2022/03/23 08:43:02;;;;;;;9.68;4.33;;;;;;;6.97;44.96;149409.70;1768652;81;21552;-63
2022/03/23 08:45:30;;;;;;;11.38;4.37;;;;;;;7.00;43.62;149418.73;1769050;81;21139;-61
2022/03/23 08:47:59;;;;;;;18.70;4.22;;;;;;;7.04;42.77;149427.81;1769575;81;21012;-63
2022/03/23 08:50:28;;;;;;;7.55;3.95;;;;;;;7.05;42.10;149429.08;1770119;80;21012;-60
2022/03/23 08:52:56;;;;;;;11.22;4.05;;;;;;;7.04;41.81;149427.81;1770994;80;20842;-60
2022/03/23 08:55:28;;;;;;;8.43;4.15;;;;;;;7.09;41.92;149440.75;1770079;79;22834;-60
2022/03/23 08:57:55;;;;;;;8.88;3.87;;;;;;;7.12;41.83;149447.23;1779473;79;21440;-61
2022/03/23 09:00:23;;;;;;;7.25;3.98;;;;;;;7.17;41.39;149461.44;1774344;79;22133;-61
2022/03/23 09:02:50;;;;;;;8.58;3.75;;;;;;;7.23;41.15;149474.42;1773076;79;20867;-61
2022/03/23 09:05:19;;;;;;;5.67;3.58;;;;;;;7.24;40.55;149478.27;1770495;79;22210;-62
2022/03/23 09:07:46;;;;;;;7.30;3.40;;;;;;;7.24;40.85;149477.00;1785455;79;21057;-62
2022/03/23 09:10:18;;;;;;;9.58;3.47;;;;;;;7.31;40.96;149496.42;1722348;82;21006;-61
2022/03/23 09:12:46;;;;;;;8.00;3.45;;;;;;;7.44;40.66;149528.78;1758837;81;21048;-61
2022/03/23 09:15:16;;;;;;;5.08;2.80;;;;;;;7.59;40.15;149565.00;1740954;81;21053;-62
2022/03/23 09:17:45;;;;;;;6.85;3.00;;;;;;;7.70;39.49;149593.52;1752543;81;21014;-62
2022/03/23 09:20:14;;;;;;;7.35;3.00;;;;;;;7.82;39.26;149621.98;1750509;81;21683;-62
2022/03/23 09:22:44;;;;;;;7.42;2.83;;;;;;;7.88;38.95;149638.83;1754237;80;21470;-62
2022/03/23 09:25:13;;;;;;;6.75;2.50;;;;;;;7.98;38.84;149662.16;1753452;81;21490;-62
2022/03/23 09:27:43;;;;;;;4.70;2.42;;;;;;;8.01;37.78;149671.20;1766958;80;21036;-62
2022/03/23 09:30:13;;;;;;;6.80;2.52;;;;;;;8.04;37.90;149677.69;1766913;81;21056;-62
2022/03/23 09:32:41;;;;;;;7.47;2.83;;;;;;;8.06;37.13;149681.55;1767202;81;21082;-62
2022/03/23 09:35:08;;;;;;;4.12;2.37;;;;;;;8.02;37.25;149673.80;1753329;81;21031;-63
2022/03/23 09:37:49;;;;;;;4.95;2.08;;;;;;;8.00;37.08;149668.61;1749789;81;21064;-62
2022/03/23 09:40:27;;;;;;;4.70;2.60;;;;;;;8.03;37.30;149676.38;1744371;81;21040;-63
2022/03/23 09:43:02;;;;;;;6.15;2.40;;;;;;;8.11;37.38;149694.55;1758502;80;21028;-63
2022/03/23 09:45:39;;;;;;;5.08;2.47;;;;;;;8.17;37.27;149710.08;1735444;82;21147;-62
2022/03/23 09:47:59;;;;;;;6.67;2.50;;;;;;;8.18;36.96;149712.66;1763938;81;21056;-62
2022/03/23 09:50:28;;;;;;;7.78;2.50;;;;;;;8.19;36.98;149715.25;1772570;80;21039;-62
2022/03/23 09:52:57;;;;;;;4.67;2.27;;;;;;;8.20;36.57;149716.56;1808080;79;21533;-63
2022/03/23 09:55:24;;;;;;;6.62;2.12;;;;;;;8.22;36.48;149721.75;1790561;79;21055;-62
2022/03/23 09:57:58;;;;;;;8.73;2.65;;;;;;;8.25;36.64;149729.52;1800075;79;21399;-63
2022/03/23 10:00:29;;;;;;;5.80;2.10;;;;;;;8.24;36.51;149728.19;1812765;78;21076;-62
2022/03/23 10:03:17;;;;;;;8.93;2.72;;;;;;;8.30;36.62;149742.45;1812553;79;21052;-62
2022/03/23 10:06:27;;;;;;;7.35;2.77;;;;;;;8.37;36.38;149760.58;1813953;79;21465;-64
2022/03/23 10:09:21;;;;;;;6.47;2.55;;;;;;;8.44;36.17;149777.44;1813699;79;20952;-61
2022/03/23 10:12:40;;;;;;;4.97;2.52;;;;;;;8.47;36.18;149785.19;1813586;78;20901;-62
2022/03/23 10:15:40;;;;;;;5.90;2.27;;;;;;;8.45;36.00;149780.02;1812728;78;21032;-62
2022/03/23 10:18:48;;;;;;;6.80;2.90;;;;;;;8.42;36.31;149773.56;1771112;79;21612;-63
2022/03/23 10:21:22;;;;;;;7.55;2.60;;;;;;;8.44;36.68;149777.44;1813233;78;20941;-60
2022/03/23 10:24:01;;;;;;;9.98;2.80;;;;;;;8.47;36.68;149785.19;1813936;79;20956;-61
2022/03/23 10:26:31;;;;;;;5.12;2.52;;;;;;;8.46;37.18;149782.61;1810903;79;21129;-61
2022/03/23 10:29:00;;;;;;;8.13;3.00;;;;;;;8.46;37.17;149782.61;1814111;78;21036;-61
2022/03/23 10:31:27;;;;;;;4.35;2.10;;;;;;;8.45;36.55;149780.02;1814135;78;21640;-62
2022/03/23 10:34:07;;;;;;;4.22;2.45;;;;;;;8.45;36.36;149780.02;1813609;79;21008;-62
2022/03/23 10:36:41;;;;;;;5.10;2.52;;;;;;;8.42;35.98;149773.56;1813638;78;21675;-62
2022/03/23 10:39:12;;;;;;;6.72;2.85;;;;;;;8.44;36.22;149777.44;1757003;79;21924;-60
2022/03/23 10:41:40;;;;;;;6.03;2.83;;;;;;;8.47;36.05;149785.19;1760272;81;21001;-63
2022/03/23 10:44:16;;;;;;;6.85;2.65;;;;;;;8.53;36.51;149799.50;1809995;79;21075;-60
2022/03/23 10:46:44;;;;;;;8.40;2.95;;;;;;;8.59;36.93;149816.36;1813245;79;21091;-62
2022/03/23 10:49:14;;;;;;;7.25;3.10;;;;;;;8.65;36.75;149829.31;1813185;79;21541;-60
2022/03/23 10:51:42;;;;;;;4.75;2.98;;;;;;;8.62;36.71;149821.55;1791048;79;21279;-62
2022/03/23 10:54:16;;;;;;;5.95;3.10;;;;;;;8.62;36.70;149821.55;1752089;81;21054;-62
2022/03/23 10:56:45;;;;;;;;;;;;;;;8.63;36.63;149824.13;1743717;82;21432;-61
2022/03/23 10:59:26;;;;;;;11.68;3.95;;;;;;;8.66;36.81;149833.22;1741051;82;20621;-63
2022/03/23 11:02:08;;;;;;;9.53;4.53;;;;;;;8.70;36.64;149842.25;1741223;82;21002;-63
2022/03/23 11:04:53;;;;;;;7.42;3.50;;;;;;;8.70;36.23;149843.58;1790061;79;21200;-62
2022/03/23 11:07:30;;;;;;;9.25;3.67;;;;;;;8.71;35.79;149844.84;1789595;80;21052;-61
2022/03/23 11:15:51;;;;;;;9.38;3.80;;;;;;;8.76;35.04;149857.84;1741851;82;21040;-61
2022/03/23 11:18:20;;;;;;;8.43;3.70;;;;;;;8.73;34.82;149851.34;1741464;82;21134;-62
2022/03/23 11:20:52;;;;;;;5.70;2.67;;;;;;;8.72;34.60;149848.75;1789730;80;20859;-63
2022/03/23 11:23:28;;;;;;;5.00;2.60;;;;;;;8.71;34.28;149844.84;1751448;81;20977;-62
2022/03/23 11:26:07;;;;;;;9.23;3.05;;;;;;;8.73;34.13;149851.34;1742043;82;20906;-62
2022/03/23 11:28:42;;;;;;;5.92;3.12;;;;;;;8.75;33.88;149855.25;1790019;79;21112;-62
2022/03/23 11:31:10;;;;;;;4.78;2.80;;;;;;;8.73;33.66;149850.03;1790170;79;23057;-63
2022/03/23 11:33:38;;;;;;;7.95;3.20;;;;;;;8.71;33.74;149844.84;1751986;81;21038;-64
2022/03/23 11:36:11;;;;;;;8.65;2.70;;;;;;;8.71;33.73;149846.17;1747686;82;21032;-62
2022/03/23 11:38:39;;;;;;;4.47;2.70;;;;;;;8.73;33.92;149850.03;1789802;79;21041;-62
2022/03/23 11:41:07;;;;;;;6.75;2.72;;;;;;;8.77;33.99;149860.44;1752463;81;21037;-63
2022/03/23 11:43:34;;;;;;;7.85;2.98;;;;;;;8.83;33.68;149874.66;1741512;82;21233;-62
2022/03/23 11:46:04;;;;;;;7.58;2.92;;;;;;;8.85;33.66;149881.16;1789634;80;21052;-62
2022/03/23 11:49:06;;;;;;;5.22;3.22;;;;;;;8.86;33.63;149883.73;1758458;81;21469;-63
2022/03/23 11:52:07;;;;;;;6.62;3.33;;;;;;;8.89;33.74;149891.50;1772074;80;20928;-62
2022/03/23 11:58:03;;;;;;;7.30;2.85;;;;;;;8.93;33.05;149899.28;1814761;78;22037;-64
2022/03/23 12:00:40;;;;;;;5.53;3.05;;;;;;;8.89;33.18;149891.50;1819954;77;21027;-62